createdAt,value
2018-07-27T00:01:39.204Z,22.10
2018-07-27T00:04:43.458Z,22.10
2018-07-27T00:07:47.759Z,22.10
2018-07-27T00:10:51.915Z,22.10
2018-07-27T00:13:56.278Z,22.00
2018-07-27T00:17:00.464Z,22.00
2018-07-27T00:20:04.859Z,21.90
2018-07-27T00:23:57.442Z,21.80
2018-07-27T00:27:01.770Z,21.80
2018-07-27T00:30:07.441Z,21.80
2018-07-27T00:33:11.818Z,21.70
2018-07-27T00:36:16.065Z,21.70
2018-07-27T00:39:20.418Z,21.60
2018-07-27T00:42:24.646Z,21.50
2018-07-27T00:45:28.932Z,21.50
2018-07-27T00:48:33.777Z,21.40
2018-07-27T00:51:38.098Z,21.40
2018-07-27T00:54:42.616Z,21.30
2018-07-27T00:57:47.049Z,21.20
2018-07-27T01:00:51.269Z,21.20
2018-07-27T01:03:55.589Z,21.10
2018-07-27T01:06:59.946Z,21.20
2018-07-27T01:10:05.077Z,21.10
2018-07-27T01:13:09.351Z,21.00
2018-07-27T01:16:13.708Z,20.90
2018-07-27T01:19:18.102Z,20.90
2018-07-27T01:22:22.126Z,20.90
2018-07-27T01:25:26.315Z,20.90
2018-07-27T01:28:30.454Z,20.80
2018-07-27T01:31:34.818Z,20.80
2018-07-27T01:34:39.185Z,20.70
2018-07-27T01:37:48.408Z,20.70
2018-07-27T01:40:52.793Z,20.70
2018-07-27T01:43:57.048Z,20.60
2018-07-27T01:47:01.320Z,20.60
2018-07-27T01:50:06.290Z,20.60
2018-07-27T01:53:10.553Z,20.50
2018-07-27T01:56:14.940Z,20.50
2018-07-27T01:59:19.456Z,20.40
2018-07-27T02:02:23.645Z,20.40
2018-07-27T02:05:28.072Z,20.40
2018-07-27T02:08:32.432Z,20.30
2018-07-27T02:11:36.811Z,20.20
2018-07-27T02:14:41.163Z,20.20
2018-07-27T02:17:45.973Z,20.10
2018-07-27T02:20:50.331Z,20.10
2018-07-27T02:23:54.696Z,20.10
2018-07-27T02:26:59.168Z,20.10
2018-07-27T02:30:03.550Z,20.00
2018-07-27T02:33:08.002Z,19.90
2018-07-27T02:36:12.246Z,20.00
2018-07-27T02:39:17.730Z,20.00
2018-07-27T02:42:22.179Z,19.90
2018-07-27T02:45:27.367Z,19.90
2018-07-27T02:48:31.668Z,19.90
2018-07-27T02:51:36.472Z,19.90
2018-07-27T02:54:40.838Z,19.80
2018-07-27T02:57:45.203Z,19.80
2018-07-27T03:00:49.495Z,19.80
2018-07-27T03:03:53.872Z,19.80
2018-07-27T03:06:58.132Z,19.80
2018-07-27T03:10:02.415Z,19.80
2018-07-27T03:13:07.048Z,19.80
2018-07-27T03:16:11.387Z,19.80
2018-07-27T03:19:15.730Z,19.80
2018-07-27T03:22:20.051Z,19.70
2018-07-27T03:25:24.331Z,19.80
2018-07-27T03:28:28.886Z,19.80
2018-07-27T03:31:33.206Z,19.80
2018-07-27T03:34:44.544Z,19.90
2018-07-27T03:37:48.990Z,19.80
2018-07-27T03:40:53.327Z,19.80
2018-07-27T03:43:57.647Z,19.80
2018-07-27T03:47:02.168Z,19.80
2018-07-27T03:50:06.470Z,19.80
2018-07-27T03:53:11.228Z,19.90
2018-07-27T03:56:16.095Z,19.80
2018-07-27T03:59:20.594Z,19.90
2018-07-27T04:02:25.000Z,19.90
2018-07-27T04:05:29.378Z,19.90
2018-07-27T04:08:33.761Z,20.00
2018-07-27T04:11:38.226Z,20.10
2018-07-27T04:14:42.459Z,20.10
2018-07-27T04:17:52.139Z,20.20
2018-07-27T04:20:56.897Z,20.20
2018-07-27T04:24:01.249Z,20.30
2018-07-27T04:27:05.561Z,20.40
2018-07-27T04:30:09.889Z,20.50
2018-07-27T04:33:14.115Z,20.60
2018-07-27T04:36:18.406Z,20.70
2018-07-27T04:39:22.685Z,20.70
2018-07-27T04:42:27.008Z,20.80
2018-07-27T04:45:31.490Z,20.90
2018-07-27T04:48:35.871Z,21.10
2018-07-27T04:51:40.355Z,21.30
2018-07-27T04:54:44.676Z,21.50
2018-07-27T04:57:48.830Z,21.80
2018-07-27T05:00:53.243Z,22.10
2018-07-27T05:03:57.463Z,22.50
2018-07-27T05:07:01.959Z,22.70
2018-07-27T05:10:11.655Z,22.90
2018-07-27T05:13:16.123Z,23.10
2018-07-27T05:16:20.435Z,23.10
2018-07-27T05:19:24.622Z,23.20
2018-07-27T05:22:30.591Z,23.40
2018-07-27T05:25:35.177Z,23.60
2018-07-27T05:31:43.379Z,23.90
2018-07-27T05:34:47.822Z,24.10
2018-07-27T05:37:52.410Z,24.20
2018-07-27T05:40:56.857Z,24.40
2018-07-27T05:44:00.930Z,24.40
2018-07-27T05:47:05.355Z,24.40
2018-07-27T05:50:09.641Z,24.50
2018-07-27T05:53:13.964Z,24.60
2018-07-27T05:56:18.254Z,24.60
2018-07-27T05:59:22.608Z,24.80
2018-07-27T06:02:26.963Z,25.00
2018-07-27T06:05:31.453Z,25.30
2018-07-27T06:08:35.746Z,25.70
2018-07-27T06:11:40.137Z,25.90
2018-07-27T06:14:44.594Z,26.00
2018-07-27T06:17:48.969Z,26.30
2018-07-27T06:20:53.253Z,26.60
2018-07-27T06:23:57.744Z,26.70
2018-07-27T06:27:02.267Z,27.10
2018-07-27T06:30:07.221Z,27.40
2018-07-27T06:33:11.426Z,28.10
2018-07-27T06:36:15.782Z,28.90
2018-07-27T06:39:20.191Z,29.50
2018-07-27T06:42:24.493Z,30.00
2018-07-27T06:45:28.823Z,30.60
2018-07-27T06:48:33.962Z,31.20
2018-07-27T06:51:38.480Z,31.90
2018-07-27T06:54:48.671Z,32.90
2018-07-27T06:57:53.375Z,33.70
2018-07-27T07:00:58.122Z,34.10
2018-07-27T07:04:02.459Z,34.30
2018-07-27T07:07:06.823Z,35.00
2018-07-27T07:10:11.603Z,35.60
2018-07-27T07:13:16.060Z,36.30
2018-07-27T07:16:20.518Z,36.80
2018-07-27T07:19:24.832Z,37.60
2018-07-27T07:22:29.351Z,38.40
2018-07-27T07:25:33.535Z,39.40
2018-07-27T07:28:37.775Z,40.10
2018-07-27T07:31:41.948Z,40.90
2018-07-27T07:34:46.291Z,41.60
2018-07-27T07:37:51.491Z,42.00
2018-07-27T07:40:55.916Z,42.50
2018-07-27T07:44:00.305Z,43.10
2018-07-27T07:47:08.656Z,43.30
2018-07-27T07:50:14.043Z,44.10
2018-07-27T07:53:18.574Z,44.70
2018-07-27T07:56:22.917Z,45.40
2018-07-27T07:59:28.374Z,46.30
2018-07-27T08:02:32.810Z,46.30
2018-07-27T08:05:37.147Z,45.60
2018-07-27T08:08:41.281Z,45.70
2018-07-27T08:11:45.491Z,46.20
2018-07-27T08:14:50.365Z,46.80
2018-07-27T08:17:54.974Z,47.50
2018-07-27T08:20:59.601Z,47.40
2018-07-27T08:24:04.058Z,46.30
2018-07-27T08:27:09.818Z,44.90
2018-07-27T08:30:15.286Z,43.00
2018-07-27T08:33:19.198Z,41.50
2018-07-27T08:36:23.120Z,40.30
2018-07-27T08:39:29.007Z,38.80
2018-07-27T08:42:32.923Z,38.20
2018-07-27T08:45:37.247Z,37.30
2018-07-27T08:48:41.926Z,36.60
2018-07-27T08:51:46.307Z,36.10
2018-07-27T08:54:50.963Z,35.00
2018-07-27T08:57:55.202Z,33.80
2018-07-27T09:00:59.524Z,33.60
2018-07-27T09:04:03.849Z,32.80
2018-07-27T09:07:08.400Z,32.50
2018-07-27T09:10:13.496Z,32.50
2018-07-27T09:13:17.934Z,32.60
2018-07-27T09:16:22.463Z,32.40
2018-07-27T09:19:26.648Z,31.80
2018-07-27T09:22:30.999Z,31.70
2018-07-27T09:25:35.309Z,31.80
2018-07-27T09:28:39.872Z,31.20
2018-07-27T09:31:44.136Z,31.20
2018-07-27T09:34:48.457Z,31.30
2018-07-27T09:37:52.800Z,31.50
2018-07-27T09:40:57.552Z,31.50
2018-07-27T09:44:01.888Z,31.80
2018-07-27T09:47:09.680Z,31.80
2018-07-27T09:50:13.967Z,31.80
2018-07-27T09:53:18.909Z,31.40
2018-07-27T09:56:23.360Z,31.30
2018-07-27T09:59:27.645Z,31.40
2018-07-27T10:02:32.047Z,31.50
2018-07-27T10:05:36.328Z,31.60
2018-07-27T10:08:40.591Z,31.70
2018-07-27T10:14:48.658Z,32.00
2018-07-27T10:17:56.722Z,32.10
2018-07-27T10:21:01.287Z,32.30
2018-07-27T10:24:05.818Z,31.90
2018-07-27T10:27:10.303Z,31.90
2018-07-27T10:30:14.576Z,32.10
2018-07-27T10:33:18.987Z,32.20
2018-07-27T10:36:23.989Z,32.30
2018-07-27T10:39:28.199Z,32.20
2018-07-27T10:42:32.863Z,32.30
2018-07-27T10:45:37.176Z,32.30
2018-07-27T10:48:41.586Z,32.50
2018-07-27T10:51:45.946Z,32.70
2018-07-27T10:54:50.218Z,32.70
2018-07-27T10:57:54.398Z,32.70
2018-07-27T11:00:58.690Z,32.90
2018-07-27T11:04:03.541Z,33.00
2018-07-27T11:07:07.987Z,33.00
2018-07-27T11:10:12.829Z,33.20
2018-07-27T11:13:16.861Z,33.50
2018-07-27T11:16:21.347Z,33.50
2018-07-27T11:19:25.655Z,33.00
2018-07-27T11:22:30.032Z,32.70
2018-07-27T11:25:34.337Z,32.50
2018-07-27T11:28:38.677Z,32.20
2018-07-27T11:31:43.028Z,31.90
2018-07-27T11:34:47.275Z,31.90
2018-07-27T11:37:51.866Z,31.70
2018-07-27T11:44:00.264Z,31.90
2018-07-27T11:47:04.878Z,31.60
2018-07-27T11:50:09.423Z,31.40
2018-07-27T11:53:13.749Z,31.30
2018-07-27T11:56:18.160Z,31.20
2018-07-27T11:59:22.597Z,31.40
2018-07-27T12:02:27.064Z,31.50
2018-07-27T12:05:31.556Z,31.40
2018-07-27T12:08:38.130Z,31.50
2018-07-27T12:11:42.675Z,31.70
2018-07-27T12:14:47.129Z,31.80
2018-07-27T12:17:51.511Z,31.90
2018-07-27T12:20:56.005Z,32.10
2018-07-27T12:24:00.658Z,32.30
2018-07-27T12:27:04.993Z,32.40
2018-07-27T12:30:09.679Z,32.60
2018-07-27T12:33:14.375Z,32.70
2018-07-27T12:36:18.823Z,33.00
2018-07-27T12:39:23.332Z,33.30
2018-07-27T12:42:28.180Z,33.40
2018-07-27T12:45:32.463Z,33.40
2018-07-27T12:48:38.925Z,33.40
2018-07-27T12:51:43.211Z,33.60
2018-07-27T12:54:47.151Z,33.60
2018-07-27T12:57:51.553Z,33.70
2018-07-27T13:00:55.595Z,33.60
2018-07-27T13:04:00.067Z,33.70
2018-07-27T13:07:04.366Z,33.60
2018-07-27T13:13:18.606Z,33.60
2018-07-27T13:16:23.086Z,33.50
2018-07-27T13:19:27.504Z,33.30
2018-07-27T13:22:31.954Z,32.90
2018-07-27T13:25:36.247Z,32.70
2018-07-27T13:28:40.854Z,32.70
2018-07-27T13:34:55.889Z,32.70
2018-07-27T13:38:01.038Z,32.70
2018-07-27T13:41:05.878Z,32.50
2018-07-27T13:44:10.306Z,32.50
2018-07-27T13:47:14.938Z,32.60
2018-07-27T13:50:19.230Z,32.80
2018-07-27T13:53:23.909Z,32.80
2018-07-27T13:56:28.323Z,32.70
2018-07-27T13:59:33.762Z,32.80
2018-07-27T14:02:38.002Z,32.80
2018-07-27T14:05:42.374Z,32.90
2018-07-27T14:11:50.510Z,32.70
2018-07-27T14:14:54.837Z,32.50
2018-07-27T14:17:58.914Z,32.50
2018-07-27T14:21:03.093Z,32.30
2018-07-27T14:24:07.415Z,32.30
2018-07-27T14:27:11.781Z,32.20
2018-07-27T14:30:16.028Z,32.10
2018-07-27T14:33:20.243Z,32.00
2018-07-27T14:36:24.747Z,31.80
2018-07-27T14:39:28.960Z,31.70
2018-07-27T14:42:33.205Z,31.70
2018-07-27T14:45:37.538Z,31.80
2018-07-27T14:48:42.679Z,31.80
2018-07-27T14:51:46.980Z,32.00
2018-07-27T14:54:51.394Z,32.00
2018-07-27T14:57:55.800Z,32.20
2018-07-27T15:01:00.141Z,32.10
2018-07-27T15:04:04.508Z,32.10
2018-07-27T15:07:09.021Z,31.90
2018-07-27T15:10:13.545Z,31.80
2018-07-27T15:13:17.882Z,31.70
2018-07-27T15:16:22.834Z,31.70
2018-07-27T15:19:27.151Z,31.70
2018-07-27T15:22:31.779Z,31.70
2018-07-27T15:25:36.206Z,31.60
2018-07-27T15:28:40.724Z,31.70
2018-07-27T15:31:45.586Z,32.00
2018-07-27T15:34:55.575Z,32.10
2018-07-27T15:38:00.069Z,32.30
2018-07-27T15:41:04.562Z,32.50
2018-07-27T15:44:08.729Z,32.60
2018-07-27T15:47:14.103Z,32.50
2018-07-27T15:50:18.475Z,32.50
2018-07-27T15:56:26.568Z,32.70
2018-07-27T15:59:30.850Z,32.80
2018-07-27T16:02:35.090Z,32.80
2018-07-27T16:05:39.615Z,32.90
2018-07-27T16:08:43.941Z,32.90
2018-07-27T16:11:49.101Z,32.90
2018-07-27T16:14:53.418Z,32.70
2018-07-27T16:17:57.615Z,32.40
2018-07-27T16:21:01.482Z,32.30
2018-07-27T16:24:06.022Z,32.20
2018-07-27T16:27:10.124Z,32.00
2018-07-27T16:30:14.483Z,32.00
2018-07-27T16:33:18.855Z,31.90
2018-07-27T16:36:23.260Z,31.80
2018-07-27T16:39:27.454Z,31.80
2018-07-27T16:42:31.758Z,31.70
2018-07-27T16:45:36.020Z,31.60
2018-07-27T16:48:40.566Z,31.50
2018-07-27T16:51:44.935Z,31.30
2018-07-27T16:54:49.405Z,31.00
2018-07-27T16:57:53.346Z,30.90
2018-07-27T17:00:57.317Z,30.70
2018-07-27T17:04:01.683Z,30.50
2018-07-27T17:07:06.016Z,30.50
2018-07-27T17:10:09.988Z,30.40
2018-07-27T17:13:14.002Z,30.20
2018-07-27T17:16:18.052Z,30.20
2018-07-27T17:19:21.932Z,30.10
2018-07-27T17:22:26.307Z,30.00
2018-07-27T17:28:34.531Z,29.80
2018-07-27T17:31:39.226Z,29.60
2018-07-27T17:34:43.443Z,29.60
2018-07-27T17:37:47.771Z,29.50
2018-07-27T17:40:52.216Z,29.30
2018-07-27T17:43:56.399Z,29.20
2018-07-27T17:47:00.834Z,29.10
2018-07-27T17:50:05.219Z,29.00
2018-07-27T17:53:09.564Z,29.00
2018-07-27T17:56:13.981Z,28.90
2018-07-27T17:59:18.365Z,28.80
2018-07-27T18:02:22.576Z,28.80
2018-07-27T18:05:26.997Z,28.70
2018-07-27T18:08:31.310Z,28.70
2018-07-27T18:11:35.638Z,28.70
2018-07-27T18:14:39.980Z,28.70
2018-07-27T18:17:44.265Z,28.60
2018-07-27T18:20:48.653Z,28.60
2018-07-27T18:23:53.015Z,28.50
2018-07-27T18:26:57.354Z,28.50
2018-07-27T18:30:01.682Z,28.50
2018-07-27T18:33:06.345Z,28.40
2018-07-27T18:36:10.823Z,28.40
2018-07-27T18:39:15.096Z,28.40
2018-07-27T18:42:19.610Z,28.30
2018-07-27T18:45:24.145Z,28.30
2018-07-27T18:48:28.558Z,28.20
2018-07-27T18:51:32.805Z,28.10
2018-07-27T18:54:37.241Z,28.10
2018-07-27T18:57:41.663Z,28.10
2018-07-27T19:00:46.131Z,28.00
2018-07-27T19:03:50.454Z,27.90
2018-07-27T19:06:55.046Z,27.70
2018-07-27T19:09:59.553Z,27.50
2018-07-27T19:13:04.075Z,27.40
2018-07-27T19:16:14.108Z,27.40
2018-07-27T19:19:18.524Z,27.30
2018-07-27T19:22:23.156Z,27.40
2018-07-27T19:28:31.519Z,27.30
2018-07-27T19:31:35.814Z,27.20
2018-07-27T19:34:40.266Z,27.00
2018-07-27T19:37:45.673Z,26.80
2018-07-27T19:41:02.205Z,26.70
2018-07-27T19:44:07.299Z,26.50
2018-07-27T19:47:11.840Z,26.40
2018-07-27T19:50:16.127Z,26.40
2018-07-27T19:53:20.549Z,26.40
2018-07-27T19:56:25.058Z,26.40
2018-07-27T19:59:29.533Z,26.40
2018-07-27T20:02:33.719Z,26.40
2018-07-27T20:05:37.745Z,26.30
2018-07-27T20:08:42.031Z,26.20
2018-07-27T20:11:46.269Z,26.10
2018-07-27T20:14:50.706Z,26.10
2018-07-27T20:17:55.398Z,26.00
2018-07-27T20:20:59.639Z,25.90
2018-07-27T20:24:04.076Z,25.90
2018-07-27T20:27:08.324Z,25.80
2018-07-27T20:30:12.674Z,25.70
2018-07-27T20:33:17.062Z,25.70
2018-07-27T20:36:21.514Z,25.60
2018-07-27T20:39:25.954Z,25.50
2018-07-27T20:42:30.017Z,25.40
2018-07-27T20:45:35.740Z,25.30
2018-07-27T20:48:55.017Z,25.20
2018-07-27T20:52:01.673Z,25.10
2018-07-27T20:55:05.949Z,25.00
2018-07-27T20:58:10.587Z,25.00
2018-07-27T21:01:14.914Z,25.00
2018-07-27T21:04:19.207Z,24.90
2018-07-27T21:07:23.586Z,24.90
2018-07-27T21:10:27.962Z,24.90
2018-07-27T21:13:32.202Z,24.80
2018-07-27T21:16:36.838Z,24.70
2018-07-27T21:19:41.258Z,24.70
2018-07-27T21:22:45.578Z,24.60
2018-07-27T21:25:49.966Z,24.60
2018-07-27T21:28:54.339Z,24.60
2018-07-27T21:31:58.638Z,24.60
2018-07-27T21:35:03.026Z,24.50
2018-07-27T21:41:11.186Z,24.40
2018-07-27T21:44:15.573Z,24.30
2018-07-27T21:47:19.728Z,24.30
2018-07-27T21:50:24.198Z,24.30
2018-07-27T21:53:28.542Z,24.10
2018-07-27T21:56:32.803Z,24.10
2018-07-27T21:59:37.151Z,24.10
2018-07-27T22:02:41.497Z,24.10
2018-07-27T22:05:45.747Z,24.00
2018-07-27T22:08:50.061Z,24.00
2018-07-27T22:11:54.321Z,24.00
2018-07-27T22:14:58.540Z,23.90
2018-07-27T22:18:02.851Z,23.80
2018-07-27T22:21:07.074Z,23.80
2018-07-27T22:24:11.537Z,23.70
2018-07-27T22:27:15.834Z,23.70
2018-07-27T22:30:20.147Z,23.60
2018-07-27T22:33:24.634Z,23.60
2018-07-27T22:36:29.044Z,23.50
2018-07-27T22:39:33.443Z,23.50
2018-07-27T22:42:37.833Z,23.50
2018-07-27T22:45:43.254Z,23.40
2018-07-27T22:48:47.562Z,23.40
2018-07-27T22:51:51.868Z,23.50
2018-07-27T22:54:56.841Z,23.50
2018-07-27T22:58:01.280Z,23.50
2018-07-27T23:01:05.639Z,23.40
2018-07-27T23:04:09.840Z,23.40
2018-07-27T23:07:14.064Z,23.40
2018-07-27T23:10:18.420Z,23.40
2018-07-27T23:13:22.698Z,23.40
2018-07-27T23:16:27.066Z,23.40
2018-07-27T23:19:31.356Z,23.40
2018-07-27T23:22:35.738Z,23.40
2018-07-27T23:28:43.673Z,23.40
2018-07-27T23:31:48.150Z,23.30
2018-07-27T23:34:52.474Z,23.30
2018-07-27T23:37:56.772Z,23.20
2018-07-27T23:41:01.019Z,23.20
2018-07-27T23:44:05.262Z,23.20
2018-07-27T23:47:09.334Z,23.20
2018-07-27T23:50:13.579Z,23.10
2018-07-27T23:53:17.792Z,23.10
2018-07-27T23:56:22.516Z,23.00
2018-07-27T23:59:26.842Z,23.00
